sensor_id;sensor_type;location;lat;lon;timestamp;pressure;altitude;pressure_sealevel;temperature;humidity
59106;BME280;44891;50.204;8.132;2023-04-10T00:01:11;98904.50;;;3.75;84.13
59106;BME280;44891;50.204;8.132;2023-04-10T00:05:13;98904.56;;;3.67;84.25
59106;BME280;44891;50.204;8.132;2023-04-10T00:09:15;98886.31;;;3.75;84.39
59106;BME280;44891;50.204;8.132;2023-04-10T00:13:19;98891.25;;;3.85;83.42
59106;BME280;44891;50.204;8.132;2023-04-10T00:17:21;98893.94;;;3.77;84.06
59106;BME280;44891;50.204;8.132;2023-04-10T00:21:22;98900.28;;;3.74;84.59
59106;BME280;44891;50.204;8.132;2023-04-10T00:25:24;98904.34;;;3.77;84.53
59106;BME280;44891;50.204;8.132;2023-04-10T00:29:27;98901.00;;;3.68;84.87
59106;BME280;44891;50.204;8.132;2023-04-10T00:33:29;98901.00;;;3.68;84.43
59106;BME280;44891;50.204;8.132;2023-04-10T00:37:31;98897.06;;;3.72;84.35
59106;BME280;44891;50.204;8.132;2023-04-10T00:41:33;98904.06;;;3.72;84.28
59106;BME280;44891;50.204;8.132;2023-04-10T00:45:37;98909.34;;;3.64;84.00
59106;BME280;44891;50.204;8.132;2023-04-10T00:49:39;98906.44;;;3.59;84.67
59106;BME280;44891;50.204;8.132;2023-04-10T00:53:41;98903.78;;;3.67;84.40
59106;BME280;44891;50.204;8.132;2023-04-10T00:57:44;98912.19;;;3.69;85.06
59106;BME280;44891;50.204;8.132;2023-04-10T01:01:48;98906.28;;;3.75;84.49
59106;BME280;44891;50.204;8.132;2023-04-10T01:05:50;98903.78;;;3.67;84.43
59106;BME280;44891;50.204;8.132;2023-04-10T01:09:58;98896.69;;;3.75;84.19
59106;BME280;44891;50.204;8.132;2023-04-10T01:14:02;98890.25;;;3.71;84.24
59106;BME280;44891;50.204;8.132;2023-04-10T01:18:08;98878.78;;;3.66;84.00
59106;BME280;44891;50.204;8.132;2023-04-10T01:22:12;98880.91;;;3.47;84.90
59106;BME280;44891;50.204;8.132;2023-04-10T01:26:17;98875.19;;;3.52;84.77
59106;BME280;44891;50.204;8.132;2023-04-10T01:30:25;98872.50;;;3.60;84.71
59106;BME280;44891;50.204;8.132;2023-04-10T01:34:30;98859.00;;;3.65;84.86
59106;BME280;44891;50.204;8.132;2023-04-10T01:38:33;98851.91;;;3.59;85.29
59106;BME280;44891;50.204;8.132;2023-04-10T01:42:38;98854.41;;;3.52;85.62
59106;BME280;44891;50.204;8.132;2023-04-10T01:46:42;98856.91;;;3.60;85.39
59106;BME280;44891;50.204;8.132;2023-04-10T01:50:45;98853.16;;;3.63;84.94
59106;BME280;44891;50.204;8.132;2023-04-10T01:54:47;98854.13;;;3.47;86.50
59106;BME280;44891;50.204;8.132;2023-04-10T01:58:56;98860.75;;;3.49;86.42
59106;BME280;44891;50.204;8.132;2023-04-10T02:03:00;98850.41;;;3.64;85.68
59106;BME280;44891;50.204;8.132;2023-04-10T02:07:03;98840.25;;;3.69;85.52
59106;BME280;44891;50.204;8.132;2023-04-10T02:11:09;98839.63;;;3.67;84.78
59106;BME280;44891;50.204;8.132;2023-04-10T02:15:13;98836.22;;;3.67;85.07
59106;BME280;44891;50.204;8.132;2023-04-10T02:19:19;98834.63;;;3.80;84.03
59106;BME280;44891;50.204;8.132;2023-04-10T02:23:21;98838.66;;;3.68;85.10
59106;BME280;44891;50.204;8.132;2023-04-10T02:27:27;98839.81;;;3.66;85.19
59106;BME280;44891;50.204;8.132;2023-04-10T02:31:29;98839.03;;;3.65;85.19
59106;BME280;44891;50.204;8.132;2023-04-10T02:35:33;98838.94;;;3.73;84.96
59106;BME280;44891;50.204;8.132;2023-04-10T02:39:37;98842.75;;;3.48;86.35
59106;BME280;44891;50.204;8.132;2023-04-10T02:43:39;98834.53;;;3.44;86.97
59106;BME280;44891;50.204;8.132;2023-04-10T02:47:41;98827.97;;;3.48;86.56
59106;BME280;44891;50.204;8.132;2023-04-10T02:51:45;98817.63;;;3.63;86.05
59106;BME280;44891;50.204;8.132;2023-04-10T02:55:47;98815.63;;;3.50;86.47
59106;BME280;44891;50.204;8.132;2023-04-10T02:59:49;98812.34;;;3.57;85.96
59106;BME280;44891;50.204;8.132;2023-04-10T03:03:51;98815.06;;;3.40;87.03
59106;BME280;44891;50.204;8.132;2023-04-10T03:08:04;98805.59;;;3.33;87.92
59106;BME280;44891;50.204;8.132;2023-04-10T03:12:06;98803.78;;;3.33;88.35
59106;BME280;44891;50.204;8.132;2023-04-10T03:16:08;98794.13;;;3.42;88.04
59106;BME280;44891;50.204;8.132;2023-04-10T03:20:10;98781.69;;;3.52;87.52
59106;BME280;44891;50.204;8.132;2023-04-10T03:24:14;98771.84;;;3.62;86.77
59106;BME280;44891;50.204;8.132;2023-04-10T03:28:16;98776.41;;;3.60;87.44
59106;BME280;44891;50.204;8.132;2023-04-10T03:32:18;98773.09;;;3.66;87.28
59106;BME280;44891;50.204;8.132;2023-04-10T03:36:19;98763.78;;;3.42;86.85
59106;BME280;44891;50.204;8.132;2023-04-10T03:40:23;98766.81;;;3.31;87.46
59106;BME280;44891;50.204;8.132;2023-04-10T03:44:24;98772.81;;;3.32;87.77
59106;BME280;44891;50.204;8.132;2023-04-10T03:48:27;98776.13;;;3.25;87.69
59106;BME280;44891;50.204;8.132;2023-04-10T03:52:30;98781.31;;;3.40;87.18
59106;BME280;44891;50.204;8.132;2023-04-10T03:56:34;98789.91;;;3.41;86.66
59106;BME280;44891;50.204;8.132;2023-04-10T04:00:36;98790.91;;;3.25;87.02
59106;BME280;44891;50.204;8.132;2023-04-10T04:04:57;98784.28;;;3.37;86.56
59106;BME280;44891;50.204;8.132;2023-04-10T04:09:21;98778.53;;;3.12;87.30
59106;BME280;44891;50.204;8.132;2023-04-10T04:13:38;98789.63;;;3.21;87.76
59106;BME280;44891;50.204;8.132;2023-04-10T04:17:47;98784.78;;;3.18;87.57
59106;BME280;44891;50.204;8.132;2023-04-10T04:22:24;98786.75;;;3.16;87.86
59106;BME280;44891;50.204;8.132;2023-04-10T04:26:32;98797.50;;;3.27;87.42
59106;BME280;44891;50.204;8.132;2023-04-10T04:30:48;98793.94;;;3.28;87.02
59106;BME280;44891;50.204;8.132;2023-04-10T04:35:13;98780.59;;;3.32;86.94
59106;BME280;44891;50.204;8.132;2023-04-10T04:39:33;98777.91;;;3.25;87.80
59106;BME280;44891;50.204;8.132;2023-04-10T04:43:44;98780.25;;;3.35;87.31
59106;BME280;44891;50.204;8.132;2023-04-10T04:48:03;98788.31;;;3.40;86.97
59106;BME280;44891;50.204;8.132;2023-04-10T04:52:25;98793.41;;;3.33;87.57
59106;BME280;44891;50.204;8.132;2023-04-10T04:56:39;98791.47;;;3.50;87.22
59106;BME280;44891;50.204;8.132;2023-04-10T05:00:53;98786.88;;;3.52;86.90
59106;BME280;44891;50.204;8.132;2023-04-10T05:05:06;98791.47;;;3.50;88.04
59106;BME280;44891;50.204;8.132;2023-04-10T05:09:35;98792.69;;;3.54;87.63
59106;BME280;44891;50.204;8.132;2023-04-10T05:13:46;98780.00;;;3.59;87.05
59106;BME280;44891;50.204;8.132;2023-04-10T05:18:08;98782.97;;;3.71;87.17
59106;BME280;44891;50.204;8.132;2023-04-10T05:22:38;98786.44;;;3.78;87.32
59106;BME280;44891;50.204;8.132;2023-04-10T05:26:49;98778.25;;;3.96;87.09
59106;BME280;44891;50.204;8.132;2023-04-10T05:31:03;98773.22;;;4.09;86.47
59106;BME280;44891;50.204;8.132;2023-04-10T05:35:23;98782.25;;;4.13;86.28
59106;BME280;44891;50.204;8.132;2023-04-10T05:39:45;98781.16;;;4.22;86.23
59106;BME280;44891;50.204;8.132;2023-04-10T05:44:05;98774.22;;;4.44;85.44
59106;BME280;44891;50.204;8.132;2023-04-10T05:48:27;98774.47;;;4.49;85.72
59106;BME280;44891;50.204;8.132;2023-04-10T05:52:49;98771.56;;;4.59;86.20
59106;BME280;44891;50.204;8.132;2023-04-10T05:57:12;98776.75;;;4.80;85.49
59106;BME280;44891;50.204;8.132;2023-04-10T06:01:32;98775.84;;;4.95;85.25
59106;BME280;44891;50.204;8.132;2023-04-10T06:05:36;98781.16;;;5.08;85.30
59106;BME280;44891;50.204;8.132;2023-04-10T06:09:41;98771.78;;;5.35;82.75
59106;BME280;44891;50.204;8.132;2023-04-10T06:13:45;98771.78;;;5.69;81.53
59106;BME280;44891;50.204;8.132;2023-04-10T06:17:47;98773.59;;;6.10;79.08
59106;BME280;44891;50.204;8.132;2023-04-10T06:21:49;98777.25;;;6.22;77.13
59106;BME280;44891;50.204;8.132;2023-04-10T06:25:51;98782.91;;;6.52;75.70
59106;BME280;44891;50.204;8.132;2023-04-10T06:29:54;98777.16;;;6.84;73.55
59106;BME280;44891;50.204;8.132;2023-04-10T06:33:57;98777.56;;;7.27;71.37
59106;BME280;44891;50.204;8.132;2023-04-10T06:37:59;98779.72;;;7.56;70.46
59106;BME280;44891;50.204;8.132;2023-04-10T06:42:02;98782.63;;;7.93;65.55
59106;BME280;44891;50.204;8.132;2023-04-10T06:46:28;98769.97;;;8.41;64.68
59106;BME280;44891;50.204;8.132;2023-04-10T06:50:30;98767.13;;;8.75;61.39
59106;BME280;44891;50.204;8.132;2023-04-10T06:54:32;98760.88;;;9.01;60.41
59106;BME280;44891;50.204;8.132;2023-04-10T06:58:34;98752.63;;;9.22;59.33
59106;BME280;44891;50.204;8.132;2023-04-10T07:02:37;98762.66;;;9.50;58.99
59106;BME280;44891;50.204;8.132;2023-04-10T07:06:39;98755.25;;;9.65;56.63
59106;BME280;44891;50.204;8.132;2023-04-10T07:10:41;98751.53;;;9.73;57.30
59106;BME280;44891;50.204;8.132;2023-04-10T07:14:43;98762.09;;;9.85;56.82
59106;BME280;44891;50.204;8.132;2023-04-10T07:18:46;98759.72;;;9.95;56.33
59106;BME280;44891;50.204;8.132;2023-04-10T07:22:48;98763.44;;;10.05;55.11
59106;BME280;44891;50.204;8.132;2023-04-10T07:26:50;98762.81;;;10.22;55.65
59106;BME280;44891;50.204;8.132;2023-04-10T07:30:51;98757.28;;;10.30;55.04
59106;BME280;44891;50.204;8.132;2023-04-10T07:34:55;98760.44;;;10.20;54.51
59106;BME280;44891;50.204;8.132;2023-04-10T07:38:56;98767.13;;;10.34;56.05
59106;BME280;44891;50.204;8.132;2023-04-10T07:42:58;98767.94;;;10.35;55.24
59106;BME280;44891;50.204;8.132;2023-04-10T07:47:00;98761.09;;;10.34;55.14
59106;BME280;44891;50.204;8.132;2023-04-10T07:51:04;98758.84;;;10.38;54.17
59106;BME280;44891;50.204;8.132;2023-04-10T07:55:08;98758.38;;;10.41;54.33
59106;BME280;44891;50.204;8.132;2023-04-10T07:59:10;98758.66;;;10.62;54.17
59106;BME280;44891;50.204;8.132;2023-04-10T08:03:13;98748.97;;;10.63;54.36
59106;BME280;44891;50.204;8.132;2023-04-10T08:07:17;98748.88;;;10.81;54.81
59106;BME280;44891;50.204;8.132;2023-04-10T08:11:22;98746.03;;;10.95;53.74
59106;BME280;44891;50.204;8.132;2023-04-10T08:15:25;98741.94;;;10.99;54.68
59106;BME280;44891;50.204;8.132;2023-04-10T08:19:27;98753.59;;;11.14;54.11
59106;BME280;44891;50.204;8.132;2023-04-10T08:23:30;98754.97;;;11.17;52.79
59106;BME280;44891;50.204;8.132;2023-04-10T08:27:32;98747.66;;;11.19;52.30
59106;BME280;44891;50.204;8.132;2023-04-10T08:31:33;98749.59;;;11.12;52.76
59106;BME280;44891;50.204;8.132;2023-04-10T08:35:35;98736.34;;;11.19;52.87
59106;BME280;44891;50.204;8.132;2023-04-10T08:39:38;98728.91;;;11.51;53.50
59106;BME280;44891;50.204;8.132;2023-04-10T08:43:40;98719.25;;;11.68;51.96
59106;BME280;44891;50.204;8.132;2023-04-10T08:47:43;98715.22;;;11.77;51.04
59106;BME280;44891;50.204;8.132;2023-04-10T08:51:47;98712.00;;;11.75;51.23
59106;BME280;44891;50.204;8.132;2023-04-10T08:55:53;98706.16;;;11.96;50.58
59106;BME280;44891;50.204;8.132;2023-04-10T08:59:56;98690.28;;;12.08;49.61
59106;BME280;44891;50.204;8.132;2023-04-10T09:03:59;98693.16;;;12.52;49.99
59106;BME280;44891;50.204;8.132;2023-04-10T09:08:00;98695.00;;;12.85;49.17
59106;BME280;44891;50.204;8.132;2023-04-10T09:12:04;98690.06;;;12.89;48.61
59106;BME280;44891;50.204;8.132;2023-04-10T09:16:06;98680.94;;;12.96;46.58
59106;BME280;44891;50.204;8.132;2023-04-10T09:20:19;98669.84;;;12.77;47.72
59106;BME280;44891;50.204;8.132;2023-04-10T09:24:21;98672.53;;;12.99;47.85
59106;BME280;44891;50.204;8.132;2023-04-10T09:28:24;98669.69;;;13.01;48.26
59106;BME280;44891;50.204;8.132;2023-04-10T09:32:34;98667.06;;;12.84;47.64
59106;BME280;44891;50.204;8.132;2023-04-10T09:36:36;98671.06;;;12.53;47.87
59106;BME280;44891;50.204;8.132;2023-04-10T09:40:40;98669.47;;;12.35;48.49
59106;BME280;44891;50.204;8.132;2023-04-10T09:44:43;98665.63;;;12.43;48.62
59106;BME280;44891;50.204;8.132;2023-04-10T09:48:49;98661.88;;;12.39;49.63
59106;BME280;44891;50.204;8.132;2023-04-10T09:52:56;98657.56;;;12.66;49.35
59106;BME280;44891;50.204;8.132;2023-04-10T09:56:57;98649.31;;;12.96;48.83
59106;BME280;44891;50.204;8.132;2023-04-10T10:01:01;98638.66;;;13.08;48.08
59106;BME280;44891;50.204;8.132;2023-04-10T10:05:03;98626.44;;;13.63;49.03
59106;BME280;44891;50.204;8.132;2023-04-10T10:09:05;98575.66;;;13.28;47.23
59106;BME280;44891;50.204;8.132;2023-04-10T10:13:07;98619.81;;;13.87;47.18
59106;BME280;44891;50.204;8.132;2023-04-10T10:17:12;98615.13;;;13.94;46.13
59106;BME280;44891;50.204;8.132;2023-04-10T10:21:16;98599.81;;;14.23;45.83
59106;BME280;44891;50.204;8.132;2023-04-10T10:25:19;98601.41;;;14.56;44.11
59106;BME280;44891;50.204;8.132;2023-04-10T10:29:21;98585.31;;;14.31;43.02
59106;BME280;44891;50.204;8.132;2023-04-10T10:33:25;98575.81;;;14.30;43.57
59106;BME280;44891;50.204;8.132;2023-04-10T10:37:28;98573.34;;;14.50;42.73
59106;BME280;44891;50.204;8.132;2023-04-10T10:41:32;98573.31;;;14.87;42.80
59106;BME280;44891;50.204;8.132;2023-04-10T10:45:40;98568.41;;;15.16;42.82
59106;BME280;44891;50.204;8.132;2023-04-10T10:49:55;98555.28;;;15.52;42.43
59106;BME280;44891;50.204;8.132;2023-04-10T10:53:58;98540.50;;;15.76;42.39
59106;BME280;44891;50.204;8.132;2023-04-10T10:58:00;98528.59;;;15.69;41.04
59106;BME280;44891;50.204;8.132;2023-04-10T11:02:11;98520.94;;;15.93;41.37
59106;BME280;44891;50.204;8.132;2023-04-10T11:06:16;98509.56;;;15.72;40.96
59106;BME280;44891;50.204;8.132;2023-04-10T11:10:20;98520.94;;;15.98;41.35
59106;BME280;44891;50.204;8.132;2023-04-10T11:14:42;98505.56;;;16.15;40.47
59106;BME280;44891;50.204;8.132;2023-04-10T11:19:01;98513.53;;;15.85;39.20
59106;BME280;44891;50.204;8.132;2023-04-10T11:23:08;98513.50;;;16.25;39.12
59106;BME280;44891;50.204;8.132;2023-04-10T11:27:25;98511.16;;;15.78;40.35
59106;BME280;44891;50.204;8.132;2023-04-10T11:31:38;98504.00;;;15.79;40.20
59106;BME280;44891;50.204;8.132;2023-04-10T11:35:40;98453.41;;;15.70;41.42
59106;BME280;44891;50.204;8.132;2023-04-10T11:39:47;98484.34;;;16.15;40.83
59106;BME280;44891;50.204;8.132;2023-04-10T11:43:50;98471.91;;;16.21;40.76
59106;BME280;44891;50.204;8.132;2023-04-10T11:47:52;98468.91;;;16.48;39.53
59106;BME280;44891;50.204;8.132;2023-04-10T11:51:54;98462.59;;;16.23;40.35
59106;BME280;44891;50.204;8.132;2023-04-10T11:55:57;98461.44;;;16.60;38.82
59106;BME280;44891;50.204;8.132;2023-04-10T11:59:59;98443.13;;;16.74;37.08
59106;BME280;44891;50.204;8.132;2023-04-10T12:04:01;98448.31;;;16.94;37.95
59106;BME280;44891;50.204;8.132;2023-04-10T12:08:03;98438.88;;;17.22;37.00
59106;BME280;44891;50.204;8.132;2023-04-10T12:12:07;98443.19;;;17.52;37.17
59106;BME280;44891;50.204;8.132;2023-04-10T12:16:09;98431.34;;;17.39;36.47
59106;BME280;44891;50.204;8.132;2023-04-10T12:20:11;98424.91;;;17.46;35.59
59106;BME280;44891;50.204;8.132;2023-04-10T12:28:34;98418.91;;;17.30;34.24
59106;BME280;44891;50.204;8.132;2023-04-10T12:32:36;98406.41;;;17.35;34.30
59106;BME280;44891;50.204;8.132;2023-04-10T12:36:38;98405.22;;;17.18;34.45
59106;BME280;44891;50.204;8.132;2023-04-10T12:44:58;98396.41;;;17.90;34.68
59106;BME280;44891;50.204;8.132;2023-04-10T12:49:07;98388.63;;;18.23;34.49
59106;BME280;44891;50.204;8.132;2023-04-10T12:53:09;98380.13;;;17.97;34.65
59106;BME280;44891;50.204;8.132;2023-04-10T12:57:24;98377.41;;;17.44;35.08
59106;BME280;44891;50.204;8.132;2023-04-10T13:01:27;98364.56;;;17.22;36.52
59106;BME280;44891;50.204;8.132;2023-04-10T13:05:29;98354.25;;;16.76;37.58
59106;BME280;44891;50.204;8.132;2023-04-10T13:09:31;98361.13;;;16.82;37.05
59106;BME280;44891;50.204;8.132;2023-04-10T13:13:33;98356.94;;;16.66;37.18
59106;BME280;44891;50.204;8.132;2023-04-10T13:17:36;98361.03;;;16.98;35.72
59106;BME280;44891;50.204;8.132;2023-04-10T13:21:40;98339.09;;;17.21;36.90
59106;BME280;44891;50.204;8.132;2023-04-10T13:25:42;98338.59;;;17.48;35.64
59106;BME280;44891;50.204;8.132;2023-04-10T13:29:44;98325.84;;;17.79;35.88
59106;BME280;44891;50.204;8.132;2023-04-10T13:33:47;98322.56;;;17.87;35.31
59106;BME280;44891;50.204;8.132;2023-04-10T13:37:49;98317.66;;;18.42;35.42
59106;BME280;44891;50.204;8.132;2023-04-10T13:41:53;98309.75;;;19.26;33.47
59106;BME280;44891;50.204;8.132;2023-04-10T13:45:56;98301.38;;;19.00;32.87
59106;BME280;44891;50.204;8.132;2023-04-10T13:49:59;98291.06;;;18.80;33.88
59106;BME280;44891;50.204;8.132;2023-04-10T13:54:01;98285.16;;;18.45;34.05
59106;BME280;44891;50.204;8.132;2023-04-10T13:58:04;98279.75;;;18.88;33.85
59106;BME280;44891;50.204;8.132;2023-04-10T14:02:06;98266.22;;;19.91;31.58
59106;BME280;44891;50.204;8.132;2023-04-10T14:06:10;98266.41;;;20.58;30.82
59106;BME280;44891;50.204;8.132;2023-04-10T14:10:11;98252.72;;;19.88;30.57
59106;BME280;44891;50.204;8.132;2023-04-10T14:14:13;98238.59;;;20.01;30.91
59106;BME280;44891;50.204;8.132;2023-04-10T14:18:15;98252.16;;;19.17;31.87
59106;BME280;44891;50.204;8.132;2023-04-10T14:22:19;98230.09;;;18.27;33.39
59106;BME280;44891;50.204;8.132;2023-04-10T14:26:21;98218.94;;;17.39;34.86
59106;BME280;44891;50.204;8.132;2023-04-10T14:30:23;98219.94;;;17.20;35.33
59106;BME280;44891;50.204;8.132;2023-04-10T14:34:28;98209.47;;;16.75;35.79
59106;BME280;44891;50.204;8.132;2023-04-10T14:38:31;98204.13;;;16.80;35.57
59106;BME280;44891;50.204;8.132;2023-04-10T14:42:33;98199.91;;;16.74;35.28
59106;BME280;44891;50.204;8.132;2023-04-10T14:46:35;98189.31;;;16.74;36.16
59106;BME280;44891;50.204;8.132;2023-04-10T14:50:38;98179.13;;;16.52;35.81
59106;BME280;44891;50.204;8.132;2023-04-10T14:54:41;98166.53;;;16.73;35.30
59106;BME280;44891;50.204;8.132;2023-04-10T14:58:43;98171.56;;;17.52;34.04
59106;BME280;44891;50.204;8.132;2023-04-10T15:02:46;98170.00;;;18.64;32.63
59106;BME280;44891;50.204;8.132;2023-04-10T15:06:48;98156.88;;;19.00;31.94
59106;BME280;44891;50.204;8.132;2023-04-10T15:10:52;98161.66;;;18.70;31.84
59106;BME280;44891;50.204;8.132;2023-04-10T15:14:54;98141.66;;;18.54;32.18
59106;BME280;44891;50.204;8.132;2023-04-10T15:18:56;98133.13;;;18.57;32.16
59106;BME280;44891;50.204;8.132;2023-04-10T15:22:58;98133.69;;;18.21;32.93
59106;BME280;44891;50.204;8.132;2023-04-10T15:27:02;98104.97;;;17.67;34.14
59106;BME280;44891;50.204;8.132;2023-04-10T15:31:04;98094.69;;;17.60;34.97
59106;BME280;44891;50.204;8.132;2023-04-10T15:35:06;98084.00;;;17.23;34.93
59106;BME280;44891;50.204;8.132;2023-04-10T15:39:08;98072.84;;;17.02;35.09
59106;BME280;44891;50.204;8.132;2023-04-10T15:43:12;98071.06;;;16.68;35.86
59106;BME280;44891;50.204;8.132;2023-04-10T15:47:14;98058.47;;;16.55;36.09
59106;BME280;44891;50.204;8.132;2023-04-10T15:51:16;98063.78;;;16.26;36.17
59106;BME280;44891;50.204;8.132;2023-04-10T15:55:17;98055.16;;;16.10;36.44
59106;BME280;44891;50.204;8.132;2023-04-10T15:59:21;98059.72;;;16.04;37.07
59106;BME280;44891;50.204;8.132;2023-04-10T16:03:24;98067.78;;;15.89;37.34
59106;BME280;44891;50.204;8.132;2023-04-10T16:07:26;98060.16;;;15.77;37.22
59106;BME280;44891;50.204;8.132;2023-04-10T16:11:28;98070.53;;;15.74;37.59
59106;BME280;44891;50.204;8.132;2023-04-10T16:15:33;98068.97;;;15.68;37.69
59106;BME280;44891;50.204;8.132;2023-04-10T16:19:36;98072.72;;;15.62;37.85
59106;BME280;44891;50.204;8.132;2023-04-10T16:23:38;98065.84;;;15.56;37.81
59106;BME280;44891;50.204;8.132;2023-04-10T16:27:40;98072.50;;;15.48;38.29
59106;BME280;44891;50.204;8.132;2023-04-10T16:31:43;98064.06;;;15.46;38.93
59106;BME280;44891;50.204;8.132;2023-04-10T16:35:45;98055.56;;;15.44;39.18
59106;BME280;44891;50.204;8.132;2023-04-10T16:39:48;98050.06;;;15.40;39.12
59106;BME280;44891;50.204;8.132;2023-04-10T16:43:49;98038.44;;;15.36;39.35
59106;BME280;44891;50.204;8.132;2023-04-10T16:47:53;98048.22;;;15.36;39.06
59106;BME280;44891;50.204;8.132;2023-04-10T16:51:55;98038.91;;;15.43;39.22
59106;BME280;44891;50.204;8.132;2023-04-10T16:55:56;98027.03;;;15.41;39.38
59106;BME280;44891;50.204;8.132;2023-04-10T16:59:59;98016.72;;;15.39;39.46
59106;BME280;44891;50.204;8.132;2023-04-10T17:04:02;97985.41;;;15.12;39.49
59106;BME280;44891;50.204;8.132;2023-04-10T17:08:04;98007.25;;;15.28;39.61
59106;BME280;44891;50.204;8.132;2023-04-10T17:12:06;97987.75;;;15.19;39.62
59106;BME280;44891;50.204;8.132;2023-04-10T17:16:08;97998.63;;;15.12;40.07
59106;BME280;44891;50.204;8.132;2023-04-10T17:20:11;97993.34;;;15.07;40.34
59106;BME280;44891;50.204;8.132;2023-04-10T17:24:13;97988.34;;;15.01;40.67
59106;BME280;44891;50.204;8.132;2023-04-10T17:28:15;97983.38;;;14.89;41.31
59106;BME280;44891;50.204;8.132;2023-04-10T17:32:17;97982.31;;;14.85;40.99
59106;BME280;44891;50.204;8.132;2023-04-10T17:36:20;97975.47;;;14.79;41.68
59106;BME280;44891;50.204;8.132;2023-04-10T17:40:22;97976.03;;;14.76;41.56
59106;BME280;44891;50.204;8.132;2023-04-10T17:44:24;97970.75;;;14.71;42.15
59106;BME280;44891;50.204;8.132;2023-04-10T17:48:26;97961.25;;;14.64;42.70
59106;BME280;44891;50.204;8.132;2023-04-10T17:52:29;97950.97;;;14.58;42.88
59106;BME280;44891;50.204;8.132;2023-04-10T17:56:31;97965.53;;;14.55;42.78
59106;BME280;44891;50.204;8.132;2023-04-10T18:00:33;97977.16;;;14.54;42.92
59106;BME280;44891;50.204;8.132;2023-04-10T18:04:35;97977.16;;;14.54;43.12
59106;BME280;44891;50.204;8.132;2023-04-10T18:08:38;97974.81;;;14.48;43.39
59106;BME280;44891;50.204;8.132;2023-04-10T18:12:40;97947.31;;;14.43;43.74
59106;BME280;44891;50.204;8.132;2023-04-10T18:16:42;97945.72;;;14.42;44.35
59106;BME280;44891;50.204;8.132;2023-04-10T18:20:44;97952.59;;;14.38;44.43
59106;BME280;44891;50.204;8.132;2023-04-10T18:24:47;97941.00;;;14.34;44.44
59106;BME280;44891;50.204;8.132;2023-04-10T18:28:49;97937.03;;;14.32;45.08
59106;BME280;44891;50.204;8.132;2023-04-10T18:32:51;97880.63;;;13.97;45.55
59106;BME280;44891;50.204;8.132;2023-04-10T18:36:52;97936.00;;;14.33;45.73
59106;BME280;44891;50.204;8.132;2023-04-10T18:40:56;97958.72;;;14.34;46.13
59106;BME280;44891;50.204;8.132;2023-04-10T18:44:58;97957.13;;;14.33;46.33
59106;BME280;44891;50.204;8.132;2023-04-10T18:49:00;97949.72;;;14.30;46.90
59106;BME280;44891;50.204;8.132;2023-04-10T18:53:02;97943.66;;;14.24;47.12
59106;BME280;44891;50.204;8.132;2023-04-10T18:57:05;97934.44;;;14.17;47.34
59106;BME280;44891;50.204;8.132;2023-04-10T19:01:07;97957.13;;;14.23;47.75
59106;BME280;44891;50.204;8.132;2023-04-10T19:05:10;97952.91;;;14.22;47.98
59106;BME280;44891;50.204;8.132;2023-04-10T19:09:13;97958.19;;;14.27;48.14
59106;BME280;44891;50.204;8.132;2023-04-10T19:13:17;97970.88;;;14.25;48.51
59106;BME280;44891;50.204;8.132;2023-04-10T19:17:19;97963.50;;;14.17;49.29
59106;BME280;44891;50.204;8.132;2023-04-10T19:21:21;97965.09;;;14.02;53.08
59106;BME280;44891;50.204;8.132;2023-04-10T19:25:23;97932.13;;;13.64;57.32
59106;BME280;44891;50.204;8.132;2023-04-10T19:29:26;97918.66;;;13.30;60.92
59106;BME280;44891;50.204;8.132;2023-04-10T19:33:27;97889.63;;;13.10;64.47
59106;BME280;44891;50.204;8.132;2023-04-10T19:37:30;97880.59;;;12.85;66.13
59106;BME280;44891;50.204;8.132;2023-04-10T19:41:32;97868.16;;;12.65;67.39
59106;BME280;44891;50.204;8.132;2023-04-10T19:45:36;97876.88;;;12.66;66.23
59106;BME280;44891;50.204;8.132;2023-04-10T19:49:37;97863.19;;;12.69;65.34
59106;BME280;44891;50.204;8.132;2023-04-10T19:53:41;97844.72;;;12.64;65.82
59106;BME280;44891;50.204;8.132;2023-04-10T19:57:45;97812.00;;;12.39;66.00
59106;BME280;44891;50.204;8.132;2023-04-10T20:01:49;97861.84;;;12.66;65.78
59106;BME280;44891;50.204;8.132;2023-04-10T20:05:51;97877.41;;;12.63;66.14
59106;BME280;44891;50.204;8.132;2023-04-10T20:09:53;97866.31;;;12.66;66.42
59106;BME280;44891;50.204;8.132;2023-04-10T20:13:55;97824.91;;;12.36;66.69
59106;BME280;44891;50.204;8.132;2023-04-10T20:17:58;97875.53;;;12.58;66.80
59106;BME280;44891;50.204;8.132;2023-04-10T20:22:00;97858.44;;;12.66;67.86
59106;BME280;44891;50.204;8.132;2023-04-10T20:26:02;97857.09;;;12.58;67.50
59106;BME280;44891;50.204;8.132;2023-04-10T20:30:04;97833.66;;;12.57;68.68
59106;BME280;44891;50.204;8.132;2023-04-10T20:34:08;97818.34;;;12.53;67.42
59106;BME280;44891;50.204;8.132;2023-04-10T20:38:10;97820.97;;;12.53;67.21
59106;BME280;44891;50.204;8.132;2023-04-10T20:42:12;97822.84;;;12.58;66.64
59106;BME280;44891;50.204;8.132;2023-04-10T20:46:14;97824.72;;;12.68;66.67
59106;BME280;44891;50.204;8.132;2023-04-10T20:50:18;97816.31;;;12.76;65.68
59106;BME280;44891;50.204;8.132;2023-04-10T20:54:20;97796.53;;;12.78;65.17
59106;BME280;44891;50.204;8.132;2023-04-10T20:58:23;97796.03;;;12.82;64.71
59106;BME280;44891;50.204;8.132;2023-04-10T21:02:25;97794.19;;;12.82;64.81
59106;BME280;44891;50.204;8.132;2023-04-10T21:06:28;97763.06;;;12.84;65.56
59106;BME280;44891;50.204;8.132;2023-04-10T21:10:30;97760.16;;;12.86;65.67
59106;BME280;44891;50.204;8.132;2023-04-10T21:14:32;97743.56;;;12.85;64.66
59106;BME280;44891;50.204;8.132;2023-04-10T21:18:35;97759.91;;;12.92;63.85
59106;BME280;44891;50.204;8.132;2023-04-10T21:22:38;97777.31;;;12.98;64.05
59106;BME280;44891;50.204;8.132;2023-04-10T21:26:40;97782.56;;;13.03;63.52
59106;BME280;44891;50.204;8.132;2023-04-10T21:30:42;97776.78;;;13.01;64.20
59106;BME280;44891;50.204;8.132;2023-04-10T21:34:43;97771.50;;;12.91;65.78
59106;BME280;44891;50.204;8.132;2023-04-10T21:38:47;97752.53;;;12.89;65.56
59106;BME280;44891;50.204;8.132;2023-04-10T21:42:49;97753.59;;;12.88;66.86
59106;BME280;44891;50.204;8.132;2023-04-10T21:46:52;97767.03;;;12.92;64.86
59106;BME280;44891;50.204;8.132;2023-04-10T21:50:54;97761.75;;;12.92;65.33